sensor_id;sensor_type;location;lat;lon;timestamp;P1;durP1;ratioP1;P2;durP2;ratioP2
23123;SDS011;11731;48.592;8.858;2023-01-31T00:01:07;4.47;;;3.10;;
23123;SDS011;11731;48.592;8.858;2023-01-31T00:03:36;5.43;;;2.50;;
23123;SDS011;11731;48.592;8.858;2023-01-31T00:06:10;4.53;;;2.27;;
23123;SDS011;11731;48.592;8.858;2023-01-31T00:08:38;4.37;;;2.67;;
23123;SDS011;11731;48.592;8.858;2023-01-31T00:11:06;5.40;;;3.07;;
23123;SDS011;11731;48.592;8.858;2023-01-31T00:13:37;4.77;;;2.50;;
23123;SDS011;11731;48.592;8.858;2023-01-31T00:16:04;5.10;;;2.73;;
23123;SDS011;11731;48.592;8.858;2023-01-31T00:18:32;4.77;;;2.33;;
23123;SDS011;11731;48.592;8.858;2023-01-31T00:21:02;5.27;;;2.97;;
23123;SDS011;11731;48.592;8.858;2023-01-31T00:23:31;4.73;;;3.03;;
23123;SDS011;11731;48.592;8.858;2023-01-31T00:26:05;4.87;;;2.63;;
23123;SDS011;11731;48.592;8.858;2023-01-31T00:28:33;4.23;;;2.37;;
23123;SDS011;11731;48.592;8.858;2023-01-31T00:31:01;3.77;;;3.00;;
23123;SDS011;11731;48.592;8.858;2023-01-31T00:33:28;5.57;;;3.00;;
23123;SDS011;11731;48.592;8.858;2023-01-31T00:35:55;5.13;;;2.73;;
23123;SDS011;11731;48.592;8.858;2023-01-31T00:38:22;7.30;;;2.90;;
23123;SDS011;11731;48.592;8.858;2023-01-31T00:40:52;5.70;;;3.00;;
23123;SDS011;11731;48.592;8.858;2023-01-31T00:43:20;5.23;;;3.10;;
23123;SDS011;11731;48.592;8.858;2023-01-31T00:45:47;6.27;;;2.90;;
23123;SDS011;11731;48.592;8.858;2023-01-31T00:48:15;5.47;;;3.17;;
23123;SDS011;11731;48.592;8.858;2023-01-31T00:50:42;5.43;;;2.80;;
23123;SDS011;11731;48.592;8.858;2023-01-31T00:53:08;6.33;;;3.17;;
23123;SDS011;11731;48.592;8.858;2023-01-31T00:55:35;5.27;;;3.40;;
23123;SDS011;11731;48.592;8.858;2023-01-31T00:58:02;5.70;;;3.37;;
23123;SDS011;11731;48.592;8.858;2023-01-31T01:00:29;8.83;;;3.20;;
23123;SDS011;11731;48.592;8.858;2023-01-31T01:02:57;4.73;;;3.17;;
23123;SDS011;11731;48.592;8.858;2023-01-31T01:05:26;5.07;;;3.53;;
23123;SDS011;11731;48.592;8.858;2023-01-31T01:07:53;5.73;;;3.83;;
23123;SDS011;11731;48.592;8.858;2023-01-31T01:10:19;5.50;;;3.13;;
23123;SDS011;11731;48.592;8.858;2023-01-31T01:12:46;6.53;;;3.10;;
23123;SDS011;11731;48.592;8.858;2023-01-31T01:15:13;5.83;;;3.23;;
23123;SDS011;11731;48.592;8.858;2023-01-31T01:17:40;5.33;;;3.17;;
23123;SDS011;11731;48.592;8.858;2023-01-31T01:20:08;7.53;;;3.37;;
23123;SDS011;11731;48.592;8.858;2023-01-31T01:22:37;9.50;;;3.43;;
23123;SDS011;11731;48.592;8.858;2023-01-31T01:25:04;6.43;;;3.40;;
23123;SDS011;11731;48.592;8.858;2023-01-31T01:27:32;6.87;;;3.77;;
23123;SDS011;11731;48.592;8.858;2023-01-31T01:29:59;5.87;;;3.80;;
23123;SDS011;11731;48.592;8.858;2023-01-31T01:32:26;5.87;;;3.10;;
23123;SDS011;11731;48.592;8.858;2023-01-31T01:34:53;3.90;;;3.10;;
23123;SDS011;11731;48.592;8.858;2023-01-31T01:37:20;3.90;;;3.23;;
23123;SDS011;11731;48.592;8.858;2023-01-31T01:39:48;5.27;;;3.87;;
23123;SDS011;11731;48.592;8.858;2023-01-31T01:42:16;4.47;;;3.23;;
23123;SDS011;11731;48.592;8.858;2023-01-31T01:44:46;5.60;;;3.40;;
23123;SDS011;11731;48.592;8.858;2023-01-31T01:47:19;6.20;;;3.70;;
23123;SDS011;11731;48.592;8.858;2023-01-31T01:49:57;4.47;;;3.10;;
23123;SDS011;11731;48.592;8.858;2023-01-31T01:52:28;5.97;;;3.20;;
23123;SDS011;11731;48.592;8.858;2023-01-31T01:55:03;4.40;;;3.23;;
23123;SDS011;11731;48.592;8.858;2023-01-31T01:57:36;5.43;;;3.10;;
23123;SDS011;11731;48.592;8.858;2023-01-31T02:00:09;6.47;;;3.40;;
23123;SDS011;11731;48.592;8.858;2023-01-31T02:02:40;6.20;;;3.40;;
23123;SDS011;11731;48.592;8.858;2023-01-31T02:05:08;4.97;;;3.43;;
23123;SDS011;11731;48.592;8.858;2023-01-31T02:07:37;5.00;;;3.20;;
23123;SDS011;11731;48.592;8.858;2023-01-31T02:10:07;4.90;;;3.50;;
23123;SDS011;11731;48.592;8.858;2023-01-31T02:12:39;5.93;;;3.53;;
23123;SDS011;11731;48.592;8.858;2023-01-31T02:15:07;8.37;;;3.13;;
23123;SDS011;11731;48.592;8.858;2023-01-31T02:17:35;5.40;;;3.87;;
23123;SDS011;11731;48.592;8.858;2023-01-31T02:20:07;4.87;;;3.47;;
23123;SDS011;11731;48.592;8.858;2023-01-31T02:22:45;6.83;;;3.90;;
23123;SDS011;11731;48.592;8.858;2023-01-31T02:25:29;8.70;;;4.30;;
23123;SDS011;11731;48.592;8.858;2023-01-31T02:28:35;6.60;;;3.90;;
23123;SDS011;11731;48.592;8.858;2023-01-31T02:31:44;9.23;;;4.40;;
23123;SDS011;11731;48.592;8.858;2023-01-31T02:34:33;4.40;;;3.20;;
23123;SDS011;11731;48.592;8.858;2023-01-31T02:37:09;5.23;;;2.90;;
23123;SDS011;11731;48.592;8.858;2023-01-31T02:39:47;4.57;;;3.30;;
23123;SDS011;11731;48.592;8.858;2023-01-31T02:42:21;4.53;;;3.10;;
23123;SDS011;11731;48.592;8.858;2023-01-31T02:44:55;7.70;;;4.13;;
23123;SDS011;11731;48.592;8.858;2023-01-31T02:47:32;4.70;;;3.53;;
23123;SDS011;11731;48.592;8.858;2023-01-31T02:50:11;6.43;;;3.70;;
23123;SDS011;11731;48.592;8.858;2023-01-31T02:52:45;4.97;;;3.03;;
23123;SDS011;11731;48.592;8.858;2023-01-31T02:55:16;6.00;;;3.00;;
23123;SDS011;11731;48.592;8.858;2023-01-31T02:58:05;6.00;;;3.60;;
23123;SDS011;11731;48.592;8.858;2023-01-31T03:00:34;7.63;;;3.60;;
23123;SDS011;11731;48.592;8.858;2023-01-31T03:03:04;8.70;;;4.20;;
23123;SDS011;11731;48.592;8.858;2023-01-31T03:05:43;8.53;;;3.70;;
23123;SDS011;11731;48.592;8.858;2023-01-31T03:08:10;6.83;;;3.60;;
23123;SDS011;11731;48.592;8.858;2023-01-31T03:10:45;9.60;;;3.63;;
23123;SDS011;11731;48.592;8.858;2023-01-31T03:13:29;7.90;;;3.97;;
23123;SDS011;11731;48.592;8.858;2023-01-31T03:16:05;6.10;;;3.20;;
23123;SDS011;11731;48.592;8.858;2023-01-31T03:18:59;6.63;;;3.27;;
23123;SDS011;11731;48.592;8.858;2023-01-31T03:21:31;5.30;;;3.80;;
23123;SDS011;11731;48.592;8.858;2023-01-31T03:24:01;5.80;;;3.80;;
23123;SDS011;11731;48.592;8.858;2023-01-31T03:26:31;5.77;;;3.50;;
23123;SDS011;11731;48.592;8.858;2023-01-31T03:28:58;7.23;;;3.40;;
23123;SDS011;11731;48.592;8.858;2023-01-31T03:31:28;5.73;;;3.37;;
23123;SDS011;11731;48.592;8.858;2023-01-31T03:34:01;5.33;;;3.13;;
23123;SDS011;11731;48.592;8.858;2023-01-31T03:36:32;6.90;;;3.13;;
23123;SDS011;11731;48.592;8.858;2023-01-31T03:39:08;5.97;;;3.57;;
23123;SDS011;11731;48.592;8.858;2023-01-31T03:41:44;6.57;;;3.70;;
23123;SDS011;11731;48.592;8.858;2023-01-31T03:44:19;7.77;;;3.63;;
23123;SDS011;11731;48.592;8.858;2023-01-31T03:46:52;5.07;;;3.10;;
23123;SDS011;11731;48.592;8.858;2023-01-31T03:49:24;6.03;;;3.60;;
23123;SDS011;11731;48.592;8.858;2023-01-31T03:51:56;9.03;;;3.37;;
23123;SDS011;11731;48.592;8.858;2023-01-31T03:54:27;7.70;;;2.97;;
23123;SDS011;11731;48.592;8.858;2023-01-31T03:56:59;4.60;;;3.47;;
23123;SDS011;11731;48.592;8.858;2023-01-31T03:59:31;7.17;;;3.57;;
23123;SDS011;11731;48.592;8.858;2023-01-31T04:02:02;7.63;;;3.60;;
23123;SDS011;11731;48.592;8.858;2023-01-31T04:04:33;3.97;;;3.03;;
23123;SDS011;11731;48.592;8.858;2023-01-31T04:07:06;7.10;;;3.57;;
23123;SDS011;11731;48.592;8.858;2023-01-31T04:09:33;6.67;;;3.40;;
23123;SDS011;11731;48.592;8.858;2023-01-31T04:12:01;5.20;;;3.33;;
23123;SDS011;11731;48.592;8.858;2023-01-31T04:14:29;4.10;;;3.17;;
23123;SDS011;11731;48.592;8.858;2023-01-31T04:16:56;4.50;;;3.50;;
23123;SDS011;11731;48.592;8.858;2023-01-31T04:19:22;8.37;;;3.10;;
23123;SDS011;11731;48.592;8.858;2023-01-31T04:21:49;7.37;;;3.67;;
23123;SDS011;11731;48.592;8.858;2023-01-31T04:24:17;5.47;;;3.73;;
23123;SDS011;11731;48.592;8.858;2023-01-31T04:26:44;4.53;;;2.93;;
23123;SDS011;11731;48.592;8.858;2023-01-31T04:29:11;4.77;;;3.50;;
23123;SDS011;11731;48.592;8.858;2023-01-31T04:31:38;5.93;;;3.67;;
23123;SDS011;11731;48.592;8.858;2023-01-31T04:34:05;6.43;;;3.37;;
23123;SDS011;11731;48.592;8.858;2023-01-31T04:36:32;6.80;;;3.30;;
23123;SDS011;11731;48.592;8.858;2023-01-31T04:38:59;5.00;;;3.40;;
23123;SDS011;11731;48.592;8.858;2023-01-31T04:41:27;7.27;;;3.80;;
23123;SDS011;11731;48.592;8.858;2023-01-31T04:43:54;7.00;;;3.83;;
23123;SDS011;11731;48.592;8.858;2023-01-31T04:46:21;5.87;;;4.10;;
23123;SDS011;11731;48.592;8.858;2023-01-31T04:48:48;8.43;;;4.27;;
23123;SDS011;11731;48.592;8.858;2023-01-31T04:51:15;5.83;;;4.13;;
23123;SDS011;11731;48.592;8.858;2023-01-31T04:53:42;6.53;;;4.60;;
23123;SDS011;11731;48.592;8.858;2023-01-31T04:56:09;7.03;;;5.00;;
23123;SDS011;11731;48.592;8.858;2023-01-31T04:58:38;7.90;;;4.80;;
23123;SDS011;11731;48.592;8.858;2023-01-31T05:01:05;5.67;;;4.13;;
23123;SDS011;11731;48.592;8.858;2023-01-31T05:03:33;9.27;;;4.57;;
23123;SDS011;11731;48.592;8.858;2023-01-31T05:05:59;8.53;;;4.80;;
23123;SDS011;11731;48.592;8.858;2023-01-31T05:08:26;11.13;;;5.77;;
23123;SDS011;11731;48.592;8.858;2023-01-31T05:10:57;10.70;;;6.50;;
23123;SDS011;11731;48.592;8.858;2023-01-31T05:13:24;9.33;;;6.80;;
23123;SDS011;11731;48.592;8.858;2023-01-31T05:15:53;12.03;;;6.37;;
23123;SDS011;11731;48.592;8.858;2023-01-31T05:18:22;10.37;;;6.40;;
23123;SDS011;11731;48.592;8.858;2023-01-31T05:20:48;9.40;;;6.47;;
23123;SDS011;11731;48.592;8.858;2023-01-31T05:23:15;8.13;;;5.67;;
23123;SDS011;11731;48.592;8.858;2023-01-31T05:25:43;8.23;;;5.50;;
23123;SDS011;11731;48.592;8.858;2023-01-31T05:28:10;7.23;;;4.90;;
23123;SDS011;11731;48.592;8.858;2023-01-31T05:30:37;5.00;;;4.33;;
23123;SDS011;11731;48.592;8.858;2023-01-31T05:33:05;7.33;;;4.57;;
23123;SDS011;11731;48.592;8.858;2023-01-31T05:35:32;5.83;;;4.00;;
23123;SDS011;11731;48.592;8.858;2023-01-31T05:38:00;6.93;;;4.20;;
23123;SDS011;11731;48.592;8.858;2023-01-31T05:40:27;6.33;;;4.53;;
23123;SDS011;11731;48.592;8.858;2023-01-31T05:42:54;10.30;;;4.20;;
23123;SDS011;11731;48.592;8.858;2023-01-31T05:45:22;8.03;;;4.63;;
23123;SDS011;11731;48.592;8.858;2023-01-31T05:47:49;7.17;;;4.23;;
23123;SDS011;11731;48.592;8.858;2023-01-31T05:50:18;9.30;;;4.20;;
23123;SDS011;11731;48.592;8.858;2023-01-31T05:52:48;7.30;;;4.03;;
23123;SDS011;11731;48.592;8.858;2023-01-31T05:55:16;6.17;;;4.47;;
23123;SDS011;11731;48.592;8.858;2023-01-31T05:57:43;6.17;;;4.30;;
23123;SDS011;11731;48.592;8.858;2023-01-31T06:00:10;10.67;;;4.90;;
23123;SDS011;11731;48.592;8.858;2023-01-31T06:02:38;6.77;;;4.53;;
23123;SDS011;11731;48.592;8.858;2023-01-31T06:05:06;7.67;;;5.10;;
23123;SDS011;11731;48.592;8.858;2023-01-31T06:07:35;7.27;;;4.17;;
23123;SDS011;11731;48.592;8.858;2023-01-31T06:10:02;9.40;;;4.47;;
23123;SDS011;11731;48.592;8.858;2023-01-31T06:12:30;7.47;;;4.17;;
23123;SDS011;11731;48.592;8.858;2023-01-31T06:15:00;8.27;;;4.93;;
23123;SDS011;11731;48.592;8.858;2023-01-31T06:17:27;8.40;;;4.40;;
23123;SDS011;11731;48.592;8.858;2023-01-31T06:19:54;7.03;;;4.30;;
23123;SDS011;11731;48.592;8.858;2023-01-31T06:22:21;7.10;;;4.00;;
23123;SDS011;11731;48.592;8.858;2023-01-31T06:24:49;10.10;;;5.53;;
23123;SDS011;11731;48.592;8.858;2023-01-31T06:27:16;6.87;;;4.30;;
23123;SDS011;11731;48.592;8.858;2023-01-31T06:29:43;7.70;;;4.57;;
23123;SDS011;11731;48.592;8.858;2023-01-31T06:32:11;7.07;;;4.90;;
23123;SDS011;11731;48.592;8.858;2023-01-31T06:34:37;8.00;;;4.60;;
23123;SDS011;11731;48.592;8.858;2023-01-31T06:37:07;10.23;;;4.83;;
23123;SDS011;11731;48.592;8.858;2023-01-31T06:39:34;9.93;;;4.70;;
23123;SDS011;11731;48.592;8.858;2023-01-31T06:42:03;9.87;;;4.47;;
23123;SDS011;11731;48.592;8.858;2023-01-31T06:44:30;8.00;;;4.30;;
23123;SDS011;11731;48.592;8.858;2023-01-31T06:46:58;6.93;;;4.30;;
23123;SDS011;11731;48.592;8.858;2023-01-31T06:49:25;5.70;;;4.33;;
23123;SDS011;11731;48.592;8.858;2023-01-31T06:51:52;12.93;;;5.00;;
23123;SDS011;11731;48.592;8.858;2023-01-31T06:54:19;8.13;;;4.50;;
23123;SDS011;11731;48.592;8.858;2023-01-31T06:56:46;7.17;;;4.87;;
23123;SDS011;11731;48.592;8.858;2023-01-31T06:59:14;7.10;;;4.23;;
23123;SDS011;11731;48.592;8.858;2023-01-31T07:01:41;7.17;;;4.27;;
23123;SDS011;11731;48.592;8.858;2023-01-31T07:04:08;10.77;;;4.60;;
23123;SDS011;11731;48.592;8.858;2023-01-31T07:06:35;8.93;;;4.67;;
23123;SDS011;11731;48.592;8.858;2023-01-31T07:09:04;10.03;;;4.70;;
23123;SDS011;11731;48.592;8.858;2023-01-31T07:11:32;10.23;;;4.30;;
23123;SDS011;11731;48.592;8.858;2023-01-31T07:13:59;7.43;;;4.53;;
23123;SDS011;11731;48.592;8.858;2023-01-31T07:16:28;7.67;;;4.30;;
23123;SDS011;11731;48.592;8.858;2023-01-31T07:18:55;8.83;;;4.57;;
23123;SDS011;11731;48.592;8.858;2023-01-31T07:21:22;7.03;;;4.93;;
23123;SDS011;11731;48.592;8.858;2023-01-31T07:23:50;7.77;;;5.40;;
23123;SDS011;11731;48.592;8.858;2023-01-31T07:26:17;8.23;;;5.67;;
23123;SDS011;11731;48.592;8.858;2023-01-31T07:28:44;8.43;;;5.10;;
23123;SDS011;11731;48.592;8.858;2023-01-31T07:31:11;8.97;;;5.70;;
23123;SDS011;11731;48.592;8.858;2023-01-31T07:33:41;12.83;;;5.07;;
23123;SDS011;11731;48.592;8.858;2023-01-31T07:36:09;10.23;;;5.17;;
23123;SDS011;11731;48.592;8.858;2023-01-31T07:38:39;10.63;;;5.60;;
23123;SDS011;11731;48.592;8.858;2023-01-31T07:41:06;11.27;;;5.57;;
23123;SDS011;11731;48.592;8.858;2023-01-31T07:43:36;9.50;;;6.17;;
23123;SDS011;11731;48.592;8.858;2023-01-31T07:46:05;8.80;;;5.40;;
23123;SDS011;11731;48.592;8.858;2023-01-31T07:48:35;10.30;;;5.40;;
23123;SDS011;11731;48.592;8.858;2023-01-31T07:51:03;12.23;;;6.20;;
23123;SDS011;11731;48.592;8.858;2023-01-31T07:53:32;16.63;;;6.60;;
23123;SDS011;11731;48.592;8.858;2023-01-31T07:56:06;7.53;;;5.43;;
23123;SDS011;11731;48.592;8.858;2023-01-31T07:58:35;8.70;;;5.40;;
23123;SDS011;11731;48.592;8.858;2023-01-31T08:01:03;10.63;;;6.80;;
23123;SDS011;11731;48.592;8.858;2023-01-31T08:03:47;11.40;;;7.27;;
23123;SDS011;11731;48.592;8.858;2023-01-31T08:06:15;14.13;;;6.80;;
23123;SDS011;11731;48.592;8.858;2023-01-31T08:08:43;13.63;;;6.23;;
23123;SDS011;11731;48.592;8.858;2023-01-31T08:11:10;9.17;;;5.90;;
23123;SDS011;11731;48.592;8.858;2023-01-31T08:13:37;13.53;;;6.00;;
23123;SDS011;11731;48.592;8.858;2023-01-31T08:16:06;8.50;;;5.53;;
23123;SDS011;11731;48.592;8.858;2023-01-31T08:18:34;11.40;;;6.10;;
23123;SDS011;11731;48.592;8.858;2023-01-31T08:21:01;17.00;;;6.07;;
23123;SDS011;11731;48.592;8.858;2023-01-31T08:23:30;10.57;;;5.80;;
23123;SDS011;11731;48.592;8.858;2023-01-31T08:26:00;15.00;;;5.73;;
23123;SDS011;11731;48.592;8.858;2023-01-31T08:28:29;9.77;;;5.73;;
23123;SDS011;11731;48.592;8.858;2023-01-31T08:30:56;12.10;;;6.23;;
23123;SDS011;11731;48.592;8.858;2023-01-31T08:33:23;9.07;;;5.33;;
23123;SDS011;11731;48.592;8.858;2023-01-31T08:35:51;15.57;;;5.90;;
23123;SDS011;11731;48.592;8.858;2023-01-31T08:38:18;14.27;;;5.67;;
23123;SDS011;11731;48.592;8.858;2023-01-31T08:40:46;9.33;;;5.07;;
23123;SDS011;11731;48.592;8.858;2023-01-31T08:43:14;10.23;;;4.60;;
23123;SDS011;11731;48.592;8.858;2023-01-31T08:45:41;9.63;;;4.10;;
23123;SDS011;11731;48.592;8.858;2023-01-31T08:48:08;11.03;;;4.43;;
23123;SDS011;11731;48.592;8.858;2023-01-31T08:50:35;8.53;;;4.07;;
23123;SDS011;11731;48.592;8.858;2023-01-31T08:53:03;7.53;;;3.50;;
23123;SDS011;11731;48.592;8.858;2023-01-31T08:55:30;8.13;;;3.83;;
23123;SDS011;11731;48.592;8.858;2023-01-31T08:58:01;8.83;;;3.47;;
23123;SDS011;11731;48.592;8.858;2023-01-31T09:00:28;6.87;;;2.97;;
23123;SDS011;11731;48.592;8.858;2023-01-31T09:02:56;4.63;;;2.67;;
23123;SDS011;11731;48.592;8.858;2023-01-31T09:05:24;7.90;;;2.87;;
23123;SDS011;11731;48.592;8.858;2023-01-31T09:07:53;6.00;;;3.10;;
23123;SDS011;11731;48.592;8.858;2023-01-31T09:10:20;6.43;;;2.90;;
23123;SDS011;11731;48.592;8.858;2023-01-31T09:12:49;5.83;;;2.60;;
23123;SDS011;11731;48.592;8.858;2023-01-31T09:15:18;8.40;;;2.40;;
23123;SDS011;11731;48.592;8.858;2023-01-31T09:17:45;4.63;;;2.43;;
23123;SDS011;11731;48.592;8.858;2023-01-31T09:20:12;5.03;;;2.70;;
23123;SDS011;11731;48.592;8.858;2023-01-31T09:22:39;8.03;;;2.70;;
23123;SDS011;11731;48.592;8.858;2023-01-31T09:25:16;4.60;;;2.20;;
23123;SDS011;11731;48.592;8.858;2023-01-31T09:27:44;5.83;;;2.67;;
23123;SDS011;11731;48.592;8.858;2023-01-31T09:30:14;7.70;;;2.80;;
23123;SDS011;11731;48.592;8.858;2023-01-31T09:32:43;4.43;;;2.40;;
23123;SDS011;11731;48.592;8.858;2023-01-31T09:35:11;3.47;;;2.00;;
23123;SDS011;11731;48.592;8.858;2023-01-31T09:37:38;7.90;;;2.50;;
23123;SDS011;11731;48.592;8.858;2023-01-31T09:40:05;7.10;;;2.37;;
23123;SDS011;11731;48.592;8.858;2023-01-31T09:42:33;9.10;;;2.30;;
23123;SDS011;11731;48.592;8.858;2023-01-31T09:45:06;6.20;;;2.30;;
23123;SDS011;11731;48.592;8.858;2023-01-31T09:47:38;6.80;;;2.27;;
23123;SDS011;11731;48.592;8.858;2023-01-31T09:50:14;8.77;;;2.40;;
23123;SDS011;11731;48.592;8.858;2023-01-31T09:52:45;4.60;;;2.40;;
23123;SDS011;11731;48.592;8.858;2023-01-31T09:55:14;4.37;;;2.30;;
23123;SDS011;11731;48.592;8.858;2023-01-31T09:57:44;6.43;;;2.33;;
23123;SDS011;11731;48.592;8.858;2023-01-31T10:00:18;3.83;;;2.10;;
23123;SDS011;11731;48.592;8.858;2023-01-31T10:02:54;5.73;;;2.37;;
23123;SDS011;11731;48.592;8.858;2023-01-31T10:05:32;6.37;;;2.87;;
23123;SDS011;11731;48.592;8.858;2023-01-31T10:08:10;4.50;;;2.03;;
23123;SDS011;11731;48.592;8.858;2023-01-31T10:10:45;7.07;;;2.27;;
23123;SDS011;11731;48.592;8.858;2023-01-31T10:13:21;6.20;;;2.20;;
23123;SDS011;11731;48.592;8.858;2023-01-31T10:16:09;8.33;;;2.20;;
23123;SDS011;11731;48.592;8.858;2023-01-31T10:18:43;7.27;;;2.10;;
23123;SDS011;11731;48.592;8.858;2023-01-31T10:21:23;7.07;;;2.20;;
23123;SDS011;11731;48.592;8.858;2023-01-31T10:23:57;3.60;;;2.00;;
23123;SDS011;11731;48.592;8.858;2023-01-31T10:26:29;4.23;;;2.00;;
23123;SDS011;11731;48.592;8.858;2023-01-31T10:28:59;2.73;;;1.67;;
23123;SDS011;11731;48.592;8.858;2023-01-31T10:31:39;8.23;;;2.70;;
23123;SDS011;11731;48.592;8.858;2023-01-31T10:34:09;7.57;;;1.87;;
23123;SDS011;11731;48.592;8.858;2023-01-31T10:36:44;4.93;;;2.13;;
23123;SDS011;11731;48.592;8.858;2023-01-31T10:39:17;5.17;;;1.93;;
23123;SDS011;11731;48.592;8.858;2023-01-31T10:41:51;3.67;;;1.67;;
23123;SDS011;11731;48.592;8.858;2023-01-31T10:44:35;3.73;;;1.90;;
23123;SDS011;11731;48.592;8.858;2023-01-31T10:47:09;8.47;;;2.37;;
23123;SDS011;11731;48.592;8.858;2023-01-31T10:49:39;3.53;;;1.90;;
23123;SDS011;11731;48.592;8.858;2023-01-31T10:52:13;5.17;;;2.00;;
23123;SDS011;11731;48.592;8.858;2023-01-31T10:54:52;4.20;;;2.10;;
23123;SDS011;11731;48.592;8.858;2023-01-31T10:57:29;4.20;;;1.53;;
23123;SDS011;11731;48.592;8.858;2023-01-31T10:59:57;3.37;;;1.60;;
23123;SDS011;11731;48.592;8.858;2023-01-31T11:02:25;6.67;;;2.00;;
23123;SDS011;11731;48.592;8.858;2023-01-31T11:04:54;3.43;;;1.90;;
23123;SDS011;11731;48.592;8.858;2023-01-31T11:07:23;4.30;;;1.90;;
23123;SDS011;11731;48.592;8.858;2023-01-31T11:09:54;4.20;;;1.60;;
23123;SDS011;11731;48.592;8.858;2023-01-31T11:15:13;2.13;;;1.40;;
23123;SDS011;11731;48.592;8.858;2023-01-31T11:17:42;5.87;;;1.90;;
23123;SDS011;11731;48.592;8.858;2023-01-31T11:20:18;3.97;;;1.37;;
23123;SDS011;11731;48.592;8.858;2023-01-31T11:22:50;4.83;;;1.87;;
23123;SDS011;11731;48.592;8.858;2023-01-31T11:25:19;5.50;;;1.80;;
23123;SDS011;11731;48.592;8.858;2023-01-31T11:27:47;4.60;;;1.90;;
23123;SDS011;11731;48.592;8.858;2023-01-31T11:30:19;5.60;;;1.90;;
23123;SDS011;11731;48.592;8.858;2023-01-31T11:32:48;3.90;;;1.50;;
23123;SDS011;11731;48.592;8.858;2023-01-31T11:35:22;4.20;;;1.67;;
23123;SDS011;11731;48.592;8.858;2023-01-31T11:37:53;4.70;;;2.00;;
23123;SDS011;11731;48.592;8.858;2023-01-31T11:40:23;8.07;;;2.13;;
23123;SDS011;11731;48.592;8.858;2023-01-31T11:42:55;9.50;;;2.10;;
23123;SDS011;11731;48.592;8.858;2023-01-31T11:45:23;4.07;;;1.60;;
23123;SDS011;11731;48.592;8.858;2023-01-31T11:47:53;3.63;;;1.70;;
23123;SDS011;11731;48.592;8.858;2023-01-31T11:50:23;3.03;;;2.00;;
23123;SDS011;11731;48.592;8.858;2023-01-31T11:52:58;4.00;;;1.73;;
23123;SDS011;11731;48.592;8.858;2023-01-31T11:55:26;4.73;;;2.10;;
23123;SDS011;11731;48.592;8.858;2023-01-31T11:58:01;2.77;;;1.73;;
23123;SDS011;11731;48.592;8.858;2023-01-31T12:00:42;2.93;;;1.40;;
23123;SDS011;11731;48.592;8.858;2023-01-31T12:03:23;3.43;;;2.20;;
23123;SDS011;11731;48.592;8.858;2023-01-31T12:05:58;1.60;;;1.37;;
23123;SDS011;11731;48.592;8.858;2023-01-31T12:08:28;5.00;;;1.83;;
23123;SDS011;11731;48.592;8.858;2023-01-31T12:10:57;5.13;;;1.77;;
23123;SDS011;11731;48.592;8.858;2023-01-31T12:13:24;4.37;;;1.97;;
23123;SDS011;11731;48.592;8.858;2023-01-31T12:15:54;5.77;;;1.50;;
23123;SDS011;11731;48.592;8.858;2023-01-31T12:18:28;3.90;;;1.77;;
23123;SDS011;11731;48.592;8.858;2023-01-31T12:21:06;3.23;;;1.80;;
23123;SDS011;11731;48.592;8.858;2023-01-31T12:23:41;6.53;;;1.80;;
23123;SDS011;11731;48.592;8.858;2023-01-31T12:26:16;5.20;;;1.60;;
23123;SDS011;11731;48.592;8.858;2023-01-31T12:31:59;7.60;;;2.03;;
23123;SDS011;11731;48.592;8.858;2023-01-31T12:34:49;4.27;;;2.00;;
23123;SDS011;11731;48.592;8.858;2023-01-31T12:37:32;6.93;;;2.07;;
23123;SDS011;11731;48.592;8.858;2023-01-31T12:40:13;2.93;;;1.83;;
23123;SDS011;11731;48.592;8.858;2023-01-31T12:42:55;2.80;;;1.70;;
23123;SDS011;11731;48.592;8.858;2023-01-31T12:45:33;4.03;;;2.20;;
23123;SDS011;11731;48.592;8.858;2023-01-31T12:48:34;6.30;;;2.10;;
23123;SDS011;11731;48.592;8.858;2023-01-31T12:51:20;5.37;;;2.67;;
23123;SDS011;11731;48.592;8.858;2023-01-31T12:53:54;3.40;;;1.77;;
23123;SDS011;11731;48.592;8.858;2023-01-31T12:56:38;3.30;;;2.17;;
23123;SDS011;11731;48.592;8.858;2023-01-31T12:59:18;5.23;;;1.80;;
23123;SDS011;11731;48.592;8.858;2023-01-31T13:02:01;5.23;;;2.23;;
23123;SDS011;11731;48.592;8.858;2023-01-31T13:04:44;4.20;;;2.50;;
23123;SDS011;11731;48.592;8.858;2023-01-31T13:07:16;5.23;;;2.30;;
23123;SDS011;11731;48.592;8.858;2023-01-31T13:09:50;5.80;;;1.97;;
23123;SDS011;11731;48.592;8.858;2023-01-31T13:12:21;9.10;;;2.67;;
23123;SDS011;11731;48.592;8.858;2023-01-31T13:14:55;4.67;;;2.50;;
23123;SDS011;11731;48.592;8.858;2023-01-31T13:17:28;4.07;;;2.00;;
23123;SDS011;11731;48.592;8.858;2023-01-31T13:20:00;7.50;;;2.53;;
23123;SDS011;11731;48.592;8.858;2023-01-31T13:22:34;11.80;;;2.17;;
23123;SDS011;11731;48.592;8.858;2023-01-31T13:25:12;4.43;;;1.80;;
23123;SDS011;11731;48.592;8.858;2023-01-31T13:27:45;5.50;;;2.37;;
23123;SDS011;11731;48.592;8.858;2023-01-31T13:30:33;6.23;;;2.30;;
23123;SDS011;11731;48.592;8.858;2023-01-31T13:33:07;4.33;;;2.37;;
23123;SDS011;11731;48.592;8.858;2023-01-31T13:35:43;3.90;;;1.80;;
23123;SDS011;11731;48.592;8.858;2023-01-31T13:38:14;17.80;;;8.17;;
23123;SDS011;11731;48.592;8.858;2023-01-31T13:40:46;3.53;;;2.40;;
23123;SDS011;11731;48.592;8.858;2023-01-31T13:43:17;3.80;;;2.17;;
23123;SDS011;11731;48.592;8.858;2023-01-31T13:45:45;4.53;;;2.17;;
23123;SDS011;11731;48.592;8.858;2023-01-31T13:48:19;4.07;;;1.90;;
23123;SDS011;11731;48.592;8.858;2023-01-31T13:50:52;8.30;;;2.30;;
23123;SDS011;11731;48.592;8.858;2023-01-31T13:53:25;4.97;;;2.30;;
23123;SDS011;11731;48.592;8.858;2023-01-31T13:55:56;2.90;;;2.27;;
23123;SDS011;11731;48.592;8.858;2023-01-31T13:58:26;4.40;;;2.10;;
23123;SDS011;11731;48.592;8.858;2023-01-31T14:00:57;3.87;;;2.03;;
23123;SDS011;11731;48.592;8.858;2023-01-31T14:03:27;3.37;;;2.33;;
23123;SDS011;11731;48.592;8.858;2023-01-31T14:05:55;2.63;;;1.97;;
23123;SDS011;11731;48.592;8.858;2023-01-31T14:08:25;4.90;;;2.27;;
23123;SDS011;11731;48.592;8.858;2023-01-31T14:11:01;3.20;;;1.83;;
23123;SDS011;11731;48.592;8.858;2023-01-31T14:13:41;3.20;;;2.30;;
23123;SDS011;11731;48.592;8.858;2023-01-31T14:16:32;3.37;;;2.10;;
23123;SDS011;11731;48.592;8.858;2023-01-31T14:19:01;4.07;;;2.30;;
23123;SDS011;11731;48.592;8.858;2023-01-31T14:27:32;4.70;;;2.10;;
23123;SDS011;11731;48.592;8.858;2023-01-31T14:30:10;4.97;;;2.03;;
23123;SDS011;11731;48.592;8.858;2023-01-31T14:32:47;3.47;;;2.20;;
23123;SDS011;11731;48.592;8.858;2023-01-31T14:35:30;4.80;;;2.30;;
23123;SDS011;11731;48.592;8.858;2023-01-31T14:38:11;5.73;;;2.33;;
23123;SDS011;11731;48.592;8.858;2023-01-31T14:40:46;5.47;;;2.40;;
23123;SDS011;11731;48.592;8.858;2023-01-31T14:43:31;3.53;;;2.43;;
23123;SDS011;11731;48.592;8.858;2023-01-31T14:46:21;4.23;;;2.40;;
23123;SDS011;11731;48.592;8.858;2023-01-31T14:49:04;4.30;;;2.27;;
23123;SDS011;11731;48.592;8.858;2023-01-31T14:51:53;4.43;;;1.97;;
23123;SDS011;11731;48.592;8.858;2023-01-31T14:54:40;3.70;;;2.47;;
23123;SDS011;11731;48.592;8.858;2023-01-31T14:57:16;9.03;;;2.70;;
23123;SDS011;11731;48.592;8.858;2023-01-31T14:59:51;4.77;;;2.27;;
23123;SDS011;11731;48.592;8.858;2023-01-31T15:02:23;2.93;;;1.83;;
23123;SDS011;11731;48.592;8.858;2023-01-31T15:05:06;4.57;;;2.27;;
23123;SDS011;11731;48.592;8.858;2023-01-31T15:07:36;3.77;;;1.90;;
23123;SDS011;11731;48.592;8.858;2023-01-31T15:13:32;5.00;;;2.07;;
23123;SDS011;11731;48.592;8.858;2023-01-31T15:16:01;2.23;;;1.80;;
23123;SDS011;11731;48.592;8.858;2023-01-31T15:18:32;3.07;;;2.07;;
23123;SDS011;11731;48.592;8.858;2023-01-31T15:21:01;3.00;;;1.97;;
23123;SDS011;11731;48.592;8.858;2023-01-31T15:23:32;3.27;;;2.30;;
23123;SDS011;11731;48.592;8.858;2023-01-31T15:26:02;3.53;;;2.10;;